sensor_id;sensor_type;location;lat;lon;timestamp;P1;durP1;ratioP1;P2;durP2;ratioP2
27899;SDS011;15243;50.726;7.080;2022-12-18T00:01:29;66.53;;;22.52;;
27899;SDS011;15243;50.726;7.080;2022-12-18T00:04:00;72.45;;;24.00;;
27899;SDS011;15243;50.726;7.080;2022-12-18T00:09:02;60.00;;;23.38;;
27899;SDS011;15243;50.726;7.080;2022-12-18T00:11:30;58.78;;;22.77;;
27899;SDS011;15243;50.726;7.080;2022-12-18T00:13:57;57.30;;;22.75;;
27899;SDS011;15243;50.726;7.080;2022-12-18T00:16:25;56.63;;;20.60;;
27899;SDS011;15243;50.726;7.080;2022-12-18T00:18:54;57.53;;;21.98;;
27899;SDS011;15243;50.726;7.080;2022-12-18T00:21:22;63.75;;;25.23;;
27899;SDS011;15243;50.726;7.080;2022-12-18T00:23:49;58.55;;;23.95;;
27899;SDS011;15243;50.726;7.080;2022-12-18T00:26:18;72.68;;;25.08;;
27899;SDS011;15243;50.726;7.080;2022-12-18T00:28:50;59.78;;;24.02;;
27899;SDS011;15243;50.726;7.080;2022-12-18T00:31:21;66.75;;;25.80;;
27899;SDS011;15243;50.726;7.080;2022-12-18T00:33:50;63.97;;;25.05;;
27899;SDS011;15243;50.726;7.080;2022-12-18T00:36:21;72.93;;;26.17;;
27899;SDS011;15243;50.726;7.080;2022-12-18T00:38:50;70.80;;;26.73;;
27899;SDS011;15243;50.726;7.080;2022-12-18T00:41:19;71.07;;;27.38;;
27899;SDS011;15243;50.726;7.080;2022-12-18T00:44:05;72.32;;;27.25;;
27899;SDS011;15243;50.726;7.080;2022-12-18T00:46:33;70.68;;;27.08;;
27899;SDS011;15243;50.726;7.080;2022-12-18T00:49:00;72.07;;;25.95;;
27899;SDS011;15243;50.726;7.080;2022-12-18T00:51:27;70.10;;;25.55;;
27899;SDS011;15243;50.726;7.080;2022-12-18T00:53:54;66.82;;;27.13;;
27899;SDS011;15243;50.726;7.080;2022-12-18T00:56:21;63.40;;;25.60;;
27899;SDS011;15243;50.726;7.080;2022-12-18T00:58:48;62.83;;;25.38;;
27899;SDS011;15243;50.726;7.080;2022-12-18T01:01:15;64.07;;;25.95;;
27899;SDS011;15243;50.726;7.080;2022-12-18T01:03:43;62.70;;;24.33;;
27899;SDS011;15243;50.726;7.080;2022-12-18T01:06:12;65.53;;;24.58;;
27899;SDS011;15243;50.726;7.080;2022-12-18T01:08:40;63.40;;;25.40;;
27899;SDS011;15243;50.726;7.080;2022-12-18T01:11:11;66.45;;;24.83;;
27899;SDS011;15243;50.726;7.080;2022-12-18T01:13:39;58.42;;;25.42;;
27899;SDS011;15243;50.726;7.080;2022-12-18T01:16:08;65.40;;;25.10;;
27899;SDS011;15243;50.726;7.080;2022-12-18T01:18:37;70.85;;;26.23;;
27899;SDS011;15243;50.726;7.080;2022-12-18T01:21:11;63.95;;;26.15;;
27899;SDS011;15243;50.726;7.080;2022-12-18T01:23:39;66.30;;;24.73;;
27899;SDS011;15243;50.726;7.080;2022-12-18T01:26:08;62.60;;;24.95;;
27899;SDS011;15243;50.726;7.080;2022-12-18T01:28:37;64.45;;;26.13;;
27899;SDS011;15243;50.726;7.080;2022-12-18T01:31:19;66.35;;;25.67;;
27899;SDS011;15243;50.726;7.080;2022-12-18T01:33:48;63.87;;;25.60;;
27899;SDS011;15243;50.726;7.080;2022-12-18T01:36:19;63.78;;;26.05;;
27899;SDS011;15243;50.726;7.080;2022-12-18T01:38:53;61.45;;;23.95;;
27899;SDS011;15243;50.726;7.080;2022-12-18T01:41:23;75.35;;;28.35;;
27899;SDS011;15243;50.726;7.080;2022-12-18T01:46:21;69.78;;;26.77;;
27899;SDS011;15243;50.726;7.080;2022-12-18T01:48:57;71.25;;;26.55;;
27899;SDS011;15243;50.726;7.080;2022-12-18T01:51:29;69.32;;;27.60;;
27899;SDS011;15243;50.726;7.080;2022-12-18T01:53:57;67.88;;;25.67;;
27899;SDS011;15243;50.726;7.080;2022-12-18T01:56:25;74.20;;;26.05;;
27899;SDS011;15243;50.726;7.080;2022-12-18T01:58:56;73.13;;;26.90;;
27899;SDS011;15243;50.726;7.080;2022-12-18T02:01:28;69.38;;;25.55;;
27899;SDS011;15243;50.726;7.080;2022-12-18T02:04:10;66.28;;;24.17;;
27899;SDS011;15243;50.726;7.080;2022-12-18T02:07:53;69.15;;;26.98;;
27899;SDS011;15243;50.726;7.080;2022-12-18T02:10:06;64.18;;;25.23;;
27899;SDS011;15243;50.726;7.080;2022-12-18T02:12:49;65.72;;;25.70;;
27899;SDS011;15243;50.726;7.080;2022-12-18T02:18:41;64.45;;;25.23;;
27899;SDS011;15243;50.726;7.080;2022-12-18T02:21:28;61.17;;;24.50;;
27899;SDS011;15243;50.726;7.080;2022-12-18T02:24:17;66.63;;;25.73;;
27899;SDS011;15243;50.726;7.080;2022-12-18T02:26:57;68.30;;;24.42;;
27899;SDS011;15243;50.726;7.080;2022-12-18T02:29:29;68.35;;;25.40;;
27899;SDS011;15243;50.726;7.080;2022-12-18T02:32:00;60.00;;;23.25;;
27899;SDS011;15243;50.726;7.080;2022-12-18T02:34:31;62.95;;;23.63;;
27899;SDS011;15243;50.726;7.080;2022-12-18T02:37:02;57.05;;;23.55;;
27899;SDS011;15243;50.726;7.080;2022-12-18T02:39:32;59.45;;;24.33;;
27899;SDS011;15243;50.726;7.080;2022-12-18T02:42:01;66.45;;;25.23;;
27899;SDS011;15243;50.726;7.080;2022-12-18T02:47:11;60.13;;;23.13;;
27899;SDS011;15243;50.726;7.080;2022-12-18T02:50:02;61.97;;;26.63;;
27899;SDS011;15243;50.726;7.080;2022-12-18T02:58:18;63.92;;;24.10;;
27899;SDS011;15243;50.726;7.080;2022-12-18T03:03:52;62.47;;;23.55;;
27899;SDS011;15243;50.726;7.080;2022-12-18T03:06:27;65.95;;;25.08;;
27899;SDS011;15243;50.726;7.080;2022-12-18T03:09:10;66.35;;;24.08;;
27899;SDS011;15243;50.726;7.080;2022-12-18T03:11:44;66.85;;;24.50;;
27899;SDS011;15243;50.726;7.080;2022-12-18T03:14:33;65.32;;;24.75;;
27899;SDS011;15243;50.726;7.080;2022-12-18T03:17:03;61.55;;;22.73;;
27899;SDS011;15243;50.726;7.080;2022-12-18T03:22:02;64.15;;;23.40;;
27899;SDS011;15243;50.726;7.080;2022-12-18T03:24:30;64.28;;;24.50;;
27899;SDS011;15243;50.726;7.080;2022-12-18T03:27:02;56.47;;;23.00;;
27899;SDS011;15243;50.726;7.080;2022-12-18T03:29:38;63.85;;;23.75;;
27899;SDS011;15243;50.726;7.080;2022-12-18T03:32:23;66.10;;;24.25;;
27899;SDS011;15243;50.726;7.080;2022-12-18T03:34:55;65.72;;;26.67;;
27899;SDS011;15243;50.726;7.080;2022-12-18T03:37:25;69.50;;;26.67;;
27899;SDS011;15243;50.726;7.080;2022-12-18T03:39:52;65.03;;;25.95;;
27899;SDS011;15243;50.726;7.080;2022-12-18T03:48:05;62.53;;;22.38;;
27899;SDS011;15243;50.726;7.080;2022-12-18T03:50:47;61.60;;;23.90;;
27899;SDS011;15243;50.726;7.080;2022-12-18T03:56:09;66.57;;;23.88;;
27899;SDS011;15243;50.726;7.080;2022-12-18T03:58:38;66.07;;;24.33;;
27899;SDS011;15243;50.726;7.080;2022-12-18T04:01:08;59.53;;;24.02;;
27899;SDS011;15243;50.726;7.080;2022-12-18T04:03:38;65.88;;;25.58;;
27899;SDS011;15243;50.726;7.080;2022-12-18T04:06:07;60.28;;;24.08;;
27899;SDS011;15243;50.726;7.080;2022-12-18T04:08:34;65.28;;;24.58;;
27899;SDS011;15243;50.726;7.080;2022-12-18T04:11:02;66.22;;;24.85;;
27899;SDS011;15243;50.726;7.080;2022-12-18T04:13:36;58.00;;;23.10;;
27899;SDS011;15243;50.726;7.080;2022-12-18T04:16:04;66.93;;;25.05;;
27899;SDS011;15243;50.726;7.080;2022-12-18T04:18:31;61.55;;;25.08;;
27899;SDS011;15243;50.726;7.080;2022-12-18T04:20:58;62.13;;;24.92;;
27899;SDS011;15243;50.726;7.080;2022-12-18T04:23:25;63.50;;;23.40;;
27899;SDS011;15243;50.726;7.080;2022-12-18T04:25:52;66.57;;;25.38;;
27899;SDS011;15243;50.726;7.080;2022-12-18T04:28:19;72.65;;;25.98;;
27899;SDS011;15243;50.726;7.080;2022-12-18T04:30:49;62.30;;;23.77;;
27899;SDS011;15243;50.726;7.080;2022-12-18T04:33:16;61.05;;;24.50;;
27899;SDS011;15243;50.726;7.080;2022-12-18T04:35:44;61.33;;;23.45;;
27899;SDS011;15243;50.726;7.080;2022-12-18T04:38:11;67.28;;;25.50;;
27899;SDS011;15243;50.726;7.080;2022-12-18T04:40:38;60.92;;;24.15;;
27899;SDS011;15243;50.726;7.080;2022-12-18T04:43:07;63.75;;;25.65;;
27899;SDS011;15243;50.726;7.080;2022-12-18T04:45:33;67.82;;;24.98;;
27899;SDS011;15243;50.726;7.080;2022-12-18T04:48:01;66.43;;;25.75;;
27899;SDS011;15243;50.726;7.080;2022-12-18T04:50:28;67.65;;;26.13;;
27899;SDS011;15243;50.726;7.080;2022-12-18T04:52:55;74.03;;;26.75;;
27899;SDS011;15243;50.726;7.080;2022-12-18T04:55:25;60.30;;;24.75;;
27899;SDS011;15243;50.726;7.080;2022-12-18T04:57:52;67.32;;;25.27;;
27899;SDS011;15243;50.726;7.080;2022-12-18T05:00:19;66.63;;;25.60;;
27899;SDS011;15243;50.726;7.080;2022-12-18T05:02:47;78.43;;;26.80;;
27899;SDS011;15243;50.726;7.080;2022-12-18T05:05:14;68.55;;;25.50;;
27899;SDS011;15243;50.726;7.080;2022-12-18T05:07:41;76.05;;;27.73;;
27899;SDS011;15243;50.726;7.080;2022-12-18T05:10:08;72.13;;;26.77;;
27899;SDS011;15243;50.726;7.080;2022-12-18T05:12:35;73.05;;;27.40;;
27899;SDS011;15243;50.726;7.080;2022-12-18T05:15:22;67.28;;;25.85;;
27899;SDS011;15243;50.726;7.080;2022-12-18T05:17:49;67.85;;;27.23;;
27899;SDS011;15243;50.726;7.080;2022-12-18T05:20:15;72.63;;;28.50;;
27899;SDS011;15243;50.726;7.080;2022-12-18T05:22:44;73.53;;;26.65;;
27899;SDS011;15243;50.726;7.080;2022-12-18T05:25:11;69.20;;;27.60;;
27899;SDS011;15243;50.726;7.080;2022-12-18T05:27:37;72.68;;;29.15;;
27899;SDS011;15243;50.726;7.080;2022-12-18T05:30:04;65.72;;;26.40;;
27899;SDS011;15243;50.726;7.080;2022-12-18T05:32:31;76.88;;;27.52;;
27899;SDS011;15243;50.726;7.080;2022-12-18T05:34:58;72.00;;;27.90;;
27899;SDS011;15243;50.726;7.080;2022-12-18T05:37:25;69.20;;;27.70;;
27899;SDS011;15243;50.726;7.080;2022-12-18T05:39:52;66.18;;;26.17;;
27899;SDS011;15243;50.726;7.080;2022-12-18T05:42:18;72.82;;;27.13;;
27899;SDS011;15243;50.726;7.080;2022-12-18T05:44:45;73.32;;;28.83;;
27899;SDS011;15243;50.726;7.080;2022-12-18T05:47:12;75.70;;;28.08;;
27899;SDS011;15243;50.726;7.080;2022-12-18T05:49:39;75.05;;;27.27;;
27899;SDS011;15243;50.726;7.080;2022-12-18T05:52:05;68.10;;;27.50;;
27899;SDS011;15243;50.726;7.080;2022-12-18T05:54:32;68.55;;;26.83;;
27899;SDS011;15243;50.726;7.080;2022-12-18T05:56:59;74.45;;;28.35;;
27899;SDS011;15243;50.726;7.080;2022-12-18T05:59:26;66.88;;;26.88;;
27899;SDS011;15243;50.726;7.080;2022-12-18T06:01:52;67.18;;;27.60;;
27899;SDS011;15243;50.726;7.080;2022-12-18T06:04:19;68.40;;;26.77;;
27899;SDS011;15243;50.726;7.080;2022-12-18T06:06:46;73.35;;;26.58;;
27899;SDS011;15243;50.726;7.080;2022-12-18T06:09:13;70.57;;;27.38;;
27899;SDS011;15243;50.726;7.080;2022-12-18T06:11:40;72.70;;;27.08;;
27899;SDS011;15243;50.726;7.080;2022-12-18T06:14:06;74.55;;;28.05;;
27899;SDS011;15243;50.726;7.080;2022-12-18T06:16:35;73.95;;;27.60;;
27899;SDS011;15243;50.726;7.080;2022-12-18T06:19:03;72.30;;;28.35;;
27899;SDS011;15243;50.726;7.080;2022-12-18T06:21:31;70.53;;;27.00;;
27899;SDS011;15243;50.726;7.080;2022-12-18T06:23:59;70.03;;;27.42;;
27899;SDS011;15243;50.726;7.080;2022-12-18T06:26:26;71.95;;;28.15;;
27899;SDS011;15243;50.726;7.080;2022-12-18T06:28:53;75.35;;;27.35;;
27899;SDS011;15243;50.726;7.080;2022-12-18T06:31:20;70.45;;;27.98;;
27899;SDS011;15243;50.726;7.080;2022-12-18T06:33:47;73.60;;;28.52;;
27899;SDS011;15243;50.726;7.080;2022-12-18T06:36:14;79.50;;;30.27;;
27899;SDS011;15243;50.726;7.080;2022-12-18T06:38:42;73.80;;;27.80;;
27899;SDS011;15243;50.726;7.080;2022-12-18T06:41:14;73.75;;;26.30;;
27899;SDS011;15243;50.726;7.080;2022-12-18T06:43:45;73.93;;;28.42;;
27899;SDS011;15243;50.726;7.080;2022-12-18T06:46:12;71.88;;;28.08;;
27899;SDS011;15243;50.726;7.080;2022-12-18T06:48:39;69.30;;;28.48;;
27899;SDS011;15243;50.726;7.080;2022-12-18T06:51:06;69.55;;;27.13;;
27899;SDS011;15243;50.726;7.080;2022-12-18T06:53:33;69.03;;;28.58;;
27899;SDS011;15243;50.726;7.080;2022-12-18T06:56:00;75.28;;;29.13;;
27899;SDS011;15243;50.726;7.080;2022-12-18T06:58:35;64.93;;;27.80;;
27899;SDS011;15243;50.726;7.080;2022-12-18T07:01:03;70.80;;;27.20;;
27899;SDS011;15243;50.726;7.080;2022-12-18T07:03:31;67.82;;;27.60;;
27899;SDS011;15243;50.726;7.080;2022-12-18T07:05:58;74.22;;;28.80;;
27899;SDS011;15243;50.726;7.080;2022-12-18T07:08:25;77.07;;;29.17;;
27899;SDS011;15243;50.726;7.080;2022-12-18T07:10:52;80.22;;;29.05;;
27899;SDS011;15243;50.726;7.080;2022-12-18T07:13:21;67.35;;;28.55;;
27899;SDS011;15243;50.726;7.080;2022-12-18T07:15:49;70.85;;;28.38;;
27899;SDS011;15243;50.726;7.080;2022-12-18T07:18:15;75.68;;;29.48;;
27899;SDS011;15243;50.726;7.080;2022-12-18T07:20:42;75.82;;;28.60;;
27899;SDS011;15243;50.726;7.080;2022-12-18T07:23:11;74.13;;;27.52;;
27899;SDS011;15243;50.726;7.080;2022-12-18T07:25:37;71.78;;;28.67;;
27899;SDS011;15243;50.726;7.080;2022-12-18T07:28:05;66.38;;;28.33;;
27899;SDS011;15243;50.726;7.080;2022-12-18T07:30:32;67.75;;;27.40;;
27899;SDS011;15243;50.726;7.080;2022-12-18T07:32:59;64.40;;;26.73;;
27899;SDS011;15243;50.726;7.080;2022-12-18T07:35:26;72.93;;;28.08;;
27899;SDS011;15243;50.726;7.080;2022-12-18T07:37:53;64.78;;;26.42;;
27899;SDS011;15243;50.726;7.080;2022-12-18T07:40:19;71.85;;;28.17;;
27899;SDS011;15243;50.726;7.080;2022-12-18T07:42:46;74.43;;;29.33;;
27899;SDS011;15243;50.726;7.080;2022-12-18T07:45:13;70.18;;;27.27;;
27899;SDS011;15243;50.726;7.080;2022-12-18T07:47:40;73.82;;;27.05;;
27899;SDS011;15243;50.726;7.080;2022-12-18T07:50:07;71.50;;;28.05;;
27899;SDS011;15243;50.726;7.080;2022-12-18T07:52:34;75.97;;;29.77;;
27899;SDS011;15243;50.726;7.080;2022-12-18T07:55:01;72.85;;;28.17;;
27899;SDS011;15243;50.726;7.080;2022-12-18T07:57:28;65.75;;;27.55;;
27899;SDS011;15243;50.726;7.080;2022-12-18T08:00:15;67.63;;;27.45;;
27899;SDS011;15243;50.726;7.080;2022-12-18T08:02:42;67.80;;;27.00;;
27899;SDS011;15243;50.726;7.080;2022-12-18T08:05:09;63.20;;;26.33;;
27899;SDS011;15243;50.726;7.080;2022-12-18T08:07:36;64.22;;;26.73;;
27899;SDS011;15243;50.726;7.080;2022-12-18T08:10:03;65.05;;;26.42;;
27899;SDS011;15243;50.726;7.080;2022-12-18T08:12:31;64.05;;;26.42;;
27899;SDS011;15243;50.726;7.080;2022-12-18T08:14:58;62.72;;;26.05;;
27899;SDS011;15243;50.726;7.080;2022-12-18T08:17:24;62.80;;;25.27;;
27899;SDS011;15243;50.726;7.080;2022-12-18T08:19:51;63.97;;;26.10;;
27899;SDS011;15243;50.726;7.080;2022-12-18T08:22:18;60.58;;;24.98;;
27899;SDS011;15243;50.726;7.080;2022-12-18T08:24:45;62.83;;;27.15;;
27899;SDS011;15243;50.726;7.080;2022-12-18T08:27:11;60.03;;;25.50;;
27899;SDS011;15243;50.726;7.080;2022-12-18T08:32:21;67.30;;;26.10;;
27899;SDS011;15243;50.726;7.080;2022-12-18T08:34:48;59.90;;;25.83;;
27899;SDS011;15243;50.726;7.080;2022-12-18T08:37:15;61.22;;;24.45;;
27899;SDS011;15243;50.726;7.080;2022-12-18T08:39:41;62.08;;;25.88;;
27899;SDS011;15243;50.726;7.080;2022-12-18T08:42:09;60.25;;;25.92;;
27899;SDS011;15243;50.726;7.080;2022-12-18T08:44:55;59.00;;;25.65;;
27899;SDS011;15243;50.726;7.080;2022-12-18T08:47:21;57.30;;;24.13;;
27899;SDS011;15243;50.726;7.080;2022-12-18T08:49:48;53.85;;;25.02;;
27899;SDS011;15243;50.726;7.080;2022-12-18T08:52:15;55.40;;;23.92;;
27899;SDS011;15243;50.726;7.080;2022-12-18T08:54:42;54.75;;;22.98;;
27899;SDS011;15243;50.726;7.080;2022-12-18T08:57:09;55.95;;;23.75;;
27899;SDS011;15243;50.726;7.080;2022-12-18T08:59:35;60.78;;;25.45;;
27899;SDS011;15243;50.726;7.080;2022-12-18T09:02:02;57.63;;;25.42;;
27899;SDS011;15243;50.726;7.080;2022-12-18T09:04:29;53.08;;;23.52;;
27899;SDS011;15243;50.726;7.080;2022-12-18T09:06:56;50.75;;;21.95;;
27899;SDS011;15243;50.726;7.080;2022-12-18T09:09:23;53.28;;;22.88;;
27899;SDS011;15243;50.726;7.080;2022-12-18T09:11:49;52.75;;;21.90;;
27899;SDS011;15243;50.726;7.080;2022-12-18T09:14:16;52.45;;;23.13;;
27899;SDS011;15243;50.726;7.080;2022-12-18T09:16:43;49.25;;;22.60;;
27899;SDS011;15243;50.726;7.080;2022-12-18T09:19:10;52.00;;;22.23;;
27899;SDS011;15243;50.726;7.080;2022-12-18T09:21:37;47.33;;;20.35;;
27899;SDS011;15243;50.726;7.080;2022-12-18T09:24:11;56.03;;;24.25;;
27899;SDS011;15243;50.726;7.080;2022-12-18T09:26:39;47.28;;;21.42;;
27899;SDS011;15243;50.726;7.080;2022-12-18T09:29:08;53.85;;;20.80;;
27899;SDS011;15243;50.726;7.080;2022-12-18T09:31:35;51.17;;;23.25;;
27899;SDS011;15243;50.726;7.080;2022-12-18T09:34:05;53.13;;;22.75;;
27899;SDS011;15243;50.726;7.080;2022-12-18T09:36:32;45.13;;;22.08;;
27899;SDS011;15243;50.726;7.080;2022-12-18T09:38:59;50.65;;;22.10;;
27899;SDS011;15243;50.726;7.080;2022-12-18T09:41:43;51.38;;;22.02;;
27899;SDS011;15243;50.726;7.080;2022-12-18T09:49:19;44.85;;;20.85;;
27899;SDS011;15243;50.726;7.080;2022-12-18T09:51:51;50.35;;;21.90;;
27899;SDS011;15243;50.726;7.080;2022-12-18T09:57:26;45.80;;;21.02;;
27899;SDS011;15243;50.726;7.080;2022-12-18T10:00:15;48.72;;;22.60;;
27899;SDS011;15243;50.726;7.080;2022-12-18T10:02:47;49.67;;;22.10;;
27899;SDS011;15243;50.726;7.080;2022-12-18T10:05:18;49.70;;;23.30;;
27899;SDS011;15243;50.726;7.080;2022-12-18T10:08:17;50.83;;;21.92;;
27899;SDS011;15243;50.726;7.080;2022-12-18T10:17:13;48.38;;;22.05;;
27899;SDS011;15243;50.726;7.080;2022-12-18T10:20:02;47.83;;;21.90;;
27899;SDS011;15243;50.726;7.080;2022-12-18T10:22:43;54.65;;;23.10;;
27899;SDS011;15243;50.726;7.080;2022-12-18T10:27:53;49.65;;;22.83;;
27899;SDS011;15243;50.726;7.080;2022-12-18T10:30:24;50.75;;;23.25;;
27899;SDS011;15243;50.726;7.080;2022-12-18T10:32:52;48.65;;;22.63;;
27899;SDS011;15243;50.726;7.080;2022-12-18T10:35:22;49.60;;;23.02;;
27899;SDS011;15243;50.726;7.080;2022-12-18T10:40:30;51.97;;;22.05;;
27899;SDS011;15243;50.726;7.080;2022-12-18T10:43:13;49.92;;;22.25;;
27899;SDS011;15243;50.726;7.080;2022-12-18T10:45:41;53.88;;;23.52;;
27899;SDS011;15243;50.726;7.080;2022-12-18T10:48:18;51.38;;;23.67;;
27899;SDS011;15243;50.726;7.080;2022-12-18T10:50:49;45.97;;;23.10;;
27899;SDS011;15243;50.726;7.080;2022-12-18T10:53:38;50.55;;;23.48;;
27899;SDS011;15243;50.726;7.080;2022-12-18T10:56:08;49.95;;;23.08;;
27899;SDS011;15243;50.726;7.080;2022-12-18T10:58:36;49.10;;;23.40;;
27899;SDS011;15243;50.726;7.080;2022-12-18T11:01:11;54.38;;;24.48;;
27899;SDS011;15243;50.726;7.080;2022-12-18T11:03:41;45.42;;;22.48;;
27899;SDS011;15243;50.726;7.080;2022-12-18T11:08:42;52.40;;;23.55;;
27899;SDS011;15243;50.726;7.080;2022-12-18T11:11:23;51.35;;;24.83;;
27899;SDS011;15243;50.726;7.080;2022-12-18T11:13:57;48.58;;;22.83;;
27899;SDS011;15243;50.726;7.080;2022-12-18T11:16:27;48.58;;;24.33;;
27899;SDS011;15243;50.726;7.080;2022-12-18T11:21:46;45.97;;;20.90;;
27899;SDS011;15243;50.726;7.080;2022-12-18T11:24:24;54.40;;;25.42;;
27899;SDS011;15243;50.726;7.080;2022-12-18T11:26:58;49.40;;;23.52;;
27899;SDS011;15243;50.726;7.080;2022-12-18T11:29:35;50.30;;;23.20;;
27899;SDS011;15243;50.726;7.080;2022-12-18T11:34:42;45.97;;;23.00;;
27899;SDS011;15243;50.726;7.080;2022-12-18T11:39:49;50.92;;;23.25;;
27899;SDS011;15243;50.726;7.080;2022-12-18T11:42:20;50.10;;;24.60;;
27899;SDS011;15243;50.726;7.080;2022-12-18T11:45:01;53.55;;;25.63;;
27899;SDS011;15243;50.726;7.080;2022-12-18T11:47:38;54.58;;;24.27;;
27899;SDS011;15243;50.726;7.080;2022-12-18T11:53:17;97.47;;;40.25;;
27899;SDS011;15243;50.726;7.080;2022-12-18T11:55:54;59.55;;;24.83;;
27899;SDS011;15243;50.726;7.080;2022-12-18T12:01:20;51.65;;;23.90;;
27899;SDS011;15243;50.726;7.080;2022-12-18T12:09:33;56.83;;;26.20;;
27899;SDS011;15243;50.726;7.080;2022-12-18T12:15:06;57.20;;;26.30;;
27899;SDS011;15243;50.726;7.080;2022-12-18T12:31:50;52.85;;;25.08;;
27899;SDS011;15243;50.726;7.080;2022-12-18T12:39:53;56.78;;;24.67;;
27899;SDS011;15243;50.726;7.080;2022-12-18T12:42:43;59.78;;;25.88;;
27899;SDS011;15243;50.726;7.080;2022-12-18T12:45:39;50.30;;;24.65;;
27899;SDS011;15243;50.726;7.080;2022-12-18T12:48:44;56.03;;;24.88;;
27899;SDS011;15243;50.726;7.080;2022-12-18T12:51:21;54.80;;;25.77;;
27899;SDS011;15243;50.726;7.080;2022-12-18T12:53:54;56.30;;;26.38;;
27899;SDS011;15243;50.726;7.080;2022-12-18T12:56:24;56.15;;;24.95;;
27899;SDS011;15243;50.726;7.080;2022-12-18T12:59:13;62.25;;;26.23;;
27899;SDS011;15243;50.726;7.080;2022-12-18T13:04:40;59.95;;;27.80;;
27899;SDS011;15243;50.726;7.080;2022-12-18T13:07:27;56.08;;;25.05;;
27899;SDS011;15243;50.726;7.080;2022-12-18T13:12:52;55.95;;;25.05;;
27899;SDS011;15243;50.726;7.080;2022-12-18T13:16:03;62.97;;;27.02;;
27899;SDS011;15243;50.726;7.080;2022-12-18T13:18:32;56.72;;;26.33;;
27899;SDS011;15243;50.726;7.080;2022-12-18T13:25:59;55.58;;;25.95;;
27899;SDS011;15243;50.726;7.080;2022-12-18T13:28:54;56.65;;;25.48;;
27899;SDS011;15243;50.726;7.080;2022-12-18T13:34:16;60.85;;;28.08;;
27899;SDS011;15243;50.726;7.080;2022-12-18T13:36:53;60.40;;;27.08;;
27899;SDS011;15243;50.726;7.080;2022-12-18T13:39:23;63.45;;;25.90;;
27899;SDS011;15243;50.726;7.080;2022-12-18T13:44:38;58.55;;;26.70;;
27899;SDS011;15243;50.726;7.080;2022-12-18T13:47:26;58.75;;;26.42;;
27899;SDS011;15243;50.726;7.080;2022-12-18T13:50:25;57.17;;;26.33;;
27899;SDS011;15243;50.726;7.080;2022-12-18T13:53:01;65.63;;;27.90;;
27899;SDS011;15243;50.726;7.080;2022-12-18T13:55:31;54.28;;;24.00;;
27899;SDS011;15243;50.726;7.080;2022-12-18T13:58:04;58.88;;;26.65;;
27899;SDS011;15243;50.726;7.080;2022-12-18T14:00:32;63.50;;;26.98;;
27899;SDS011;15243;50.726;7.080;2022-12-18T14:02:59;58.17;;;26.92;;
27899;SDS011;15243;50.726;7.080;2022-12-18T14:08:13;62.60;;;27.95;;
27899;SDS011;15243;50.726;7.080;2022-12-18T14:10:45;62.28;;;26.77;;
27899;SDS011;15243;50.726;7.080;2022-12-18T14:13:17;63.20;;;29.25;;
27899;SDS011;15243;50.726;7.080;2022-12-18T14:15:50;58.60;;;28.88;;
27899;SDS011;15243;50.726;7.080;2022-12-18T14:20:51;65.88;;;28.98;;
27899;SDS011;15243;50.726;7.080;2022-12-18T14:23:36;68.13;;;28.50;;
27899;SDS011;15243;50.726;7.080;2022-12-18T14:31:21;68.72;;;28.83;;
27899;SDS011;15243;50.726;7.080;2022-12-18T14:33:51;60.08;;;27.92;;
27899;SDS011;15243;50.726;7.080;2022-12-18T14:36:28;63.28;;;28.77;;
27899;SDS011;15243;50.726;7.080;2022-12-18T14:38:56;63.10;;;28.23;;
27899;SDS011;15243;50.726;7.080;2022-12-18T14:41:24;71.03;;;30.15;;
27899;SDS011;15243;50.726;7.080;2022-12-18T14:43:53;66.93;;;30.38;;
27899;SDS011;15243;50.726;7.080;2022-12-18T14:46:42;61.92;;;27.95;;
27899;SDS011;15243;50.726;7.080;2022-12-18T14:51:54;69.25;;;30.05;;
27899;SDS011;15243;50.726;7.080;2022-12-18T14:54:29;60.03;;;28.52;;
27899;SDS011;15243;50.726;7.080;2022-12-18T14:57:01;66.53;;;29.08;;
27899;SDS011;15243;50.726;7.080;2022-12-18T14:59:32;65.93;;;29.65;;
27899;SDS011;15243;50.726;7.080;2022-12-18T15:04:53;67.22;;;29.98;;
27899;SDS011;15243;50.726;7.080;2022-12-18T15:07:27;66.00;;;29.95;;
27899;SDS011;15243;50.726;7.080;2022-12-18T15:12:45;70.45;;;29.23;;
27899;SDS011;15243;50.726;7.080;2022-12-18T15:26:10;69.25;;;29.13;;
27899;SDS011;15243;50.726;7.080;2022-12-18T15:28:38;69.28;;;30.42;;
27899;SDS011;15243;50.726;7.080;2022-12-18T15:36:15;74.13;;;30.80;;
27899;SDS011;15243;50.726;7.080;2022-12-18T15:38:52;71.72;;;30.50;;
27899;SDS011;15243;50.726;7.080;2022-12-18T15:41:22;65.07;;;28.75;;
27899;SDS011;15243;50.726;7.080;2022-12-18T15:43:51;69.85;;;30.85;;
27899;SDS011;15243;50.726;7.080;2022-12-18T15:46:22;69.53;;;29.55;;
27899;SDS011;15243;50.726;7.080;2022-12-18T15:48:51;68.70;;;30.63;;
27899;SDS011;15243;50.726;7.080;2022-12-18T15:51:28;78.78;;;31.90;;
27899;SDS011;15243;50.726;7.080;2022-12-18T15:53:59;66.45;;;29.48;;
27899;SDS011;15243;50.726;7.080;2022-12-18T15:56:27;78.20;;;32.50;;
27899;SDS011;15243;50.726;7.080;2022-12-18T15:59:16;70.28;;;32.60;;
27899;SDS011;15243;50.726;7.080;2022-12-18T16:01:45;75.20;;;35.08;;
27899;SDS011;15243;50.726;7.080;2022-12-18T16:04:16;71.10;;;30.55;;
27899;SDS011;15243;50.726;7.080;2022-12-18T16:06:46;70.57;;;31.63;;
27899;SDS011;15243;50.726;7.080;2022-12-18T16:09:34;82.55;;;32.92;;
27899;SDS011;15243;50.726;7.080;2022-12-18T16:12:01;67.70;;;30.50;;
27899;SDS011;15243;50.726;7.080;2022-12-18T16:14:29;66.80;;;30.00;;
27899;SDS011;15243;50.726;7.080;2022-12-18T16:17:00;75.22;;;31.48;;
27899;SDS011;15243;50.726;7.080;2022-12-18T16:19:29;73.63;;;32.53;;
27899;SDS011;15243;50.726;7.080;2022-12-18T16:21:57;73.35;;;31.83;;
27899;SDS011;15243;50.726;7.080;2022-12-18T16:24:25;72.18;;;32.97;;
27899;SDS011;15243;50.726;7.080;2022-12-18T16:26:53;77.55;;;32.58;;
27899;SDS011;15243;50.726;7.080;2022-12-18T16:29:25;76.25;;;32.13;;
27899;SDS011;15243;50.726;7.080;2022-12-18T16:31:57;77.72;;;34.83;;
27899;SDS011;15243;50.726;7.080;2022-12-18T16:34:26;75.50;;;32.83;;
27899;SDS011;15243;50.726;7.080;2022-12-18T16:37:02;79.32;;;34.38;;
27899;SDS011;15243;50.726;7.080;2022-12-18T16:39:32;77.88;;;33.95;;
27899;SDS011;15243;50.726;7.080;2022-12-18T16:42:11;88.32;;;41.28;;
27899;SDS011;15243;50.726;7.080;2022-12-18T16:44:40;74.30;;;33.47;;
27899;SDS011;15243;50.726;7.080;2022-12-18T16:47:08;79.30;;;34.08;;
27899;SDS011;15243;50.726;7.080;2022-12-18T16:49:39;85.38;;;36.25;;
27899;SDS011;15243;50.726;7.080;2022-12-18T16:52:06;80.68;;;34.85;;
27899;SDS011;15243;50.726;7.080;2022-12-18T16:54:33;83.07;;;36.13;;
27899;SDS011;15243;50.726;7.080;2022-12-18T16:57:02;85.68;;;36.03;;
27899;SDS011;15243;50.726;7.080;2022-12-18T16:59:30;79.32;;;33.28;;
27899;SDS011;15243;50.726;7.080;2022-12-18T17:02:04;86.18;;;37.97;;
27899;SDS011;15243;50.726;7.080;2022-12-18T17:04:32;79.90;;;34.22;;
27899;SDS011;15243;50.726;7.080;2022-12-18T17:06:59;84.10;;;35.15;;
27899;SDS011;15243;50.726;7.080;2022-12-18T17:09:26;82.93;;;35.60;;
27899;SDS011;15243;50.726;7.080;2022-12-18T17:11:52;89.60;;;38.90;;
27899;SDS011;15243;50.726;7.080;2022-12-18T17:14:21;81.85;;;36.55;;